This is the latest recevied weather packets stored in our database for station/object F5PQL-4. If no packets are shown the sender has not sent any weather packets the latest 10 day(s).
| Time | Temp. | Humidity | Pressure | Rain* | Wind** | Luminosity | Snow |
|---|---|---|---|---|---|---|---|
| 1777614689 | 20° C | 55% | 1023.4 hPa | - | - | - | - |
| 1777613789 | 17.22° C | 60% | 1023.2 hPa | - | - | - | - |
| 1777612888 | 16.11° C | 63% | 1023.2 hPa | - | - | - | - |
| 1777611988 | 15° C | 64% | 1023.1 hPa | - | - | - | - |
| 1777611088 | 14.44° C | 66% | 1022.9 hPa | - | - | - | - |
| 1777610188 | 13.89° C | 67% | 1022.8 hPa | - | - | - | - |
| 1777609288 | 13.89° C | 68% | 1022.8 hPa | - | - | - | - |
| 1777608388 | 13.89° C | 67% | 1022.7 hPa | - | - | - | - |
| 1777607488 | 13.89° C | 67% | 1022.8 hPa | - | - | - | - |
| 1777606588 | 14.44° C | 66% | 1022.7 hPa | - | - | - | - |
| 1777605688 | 14.44° C | 66% | 1022.7 hPa | - | - | - | - |
| 1777604787 | 14.44° C | 67% | 1022.6 hPa | - | - | - | - |
| 1777603887 | 14.44° C | 65% | 1022.4 hPa | - | - | - | - |
| 1777602987 | 14.44° C | 65% | 1022.3 hPa | - | - | - | - |
| 1777602087 | 15° C | 64% | 1022.2 hPa | - | - | - | - |
| 1777601187 | 15° C | 63% | 1022.2 hPa | - | - | - | - |
| 1777600287 | 15° C | 64% | 1022.1 hPa | - | - | - | - |
| 1777599386 | 15° C | 63% | 1022.1 hPa | - | - | - | - |
| 1777598486 | 15° C | 63% | 1022.2 hPa | - | - | - | - |
| 1777597586 | 15° C | 62% | 1022.2 hPa | - | - | - | - |
| 1777596686 | 15.56° C | 61% | 1022.2 hPa | - | - | - | - |
| 1777595786 | 15.56° C | 60% | 1022.2 hPa | - | - | - | - |
| 1777594886 | 16.11° C | 60% | 1022 hPa | - | - | - | - |
| 1777593986 | 16.11° C | 59% | 1022 hPa | - | - | - | - |
| 1777593086 | 16.11° C | 59% | 1022 hPa | - | - | - | - |
* Rain since midnight (hover to see other rain measurements)
** Current wind speed in m/s (hover to see current wind gust speed)